createdAt,value
2018-12-22T00:01:04.203Z,11.90
2018-12-22T00:06:08.392Z,12.00
2018-12-22T00:11:13.313Z,12.00
2018-12-22T00:16:17.790Z,12.00
2018-12-22T00:21:22.318Z,12.00
2018-12-22T00:26:26.244Z,11.90
2018-12-22T00:31:30.780Z,11.90
2018-12-22T00:47:30.235Z,11.90
2018-12-22T00:52:34.190Z,12.00
2018-12-22T00:57:38.098Z,11.90
2018-12-22T01:02:42.291Z,12.00
2018-12-22T01:07:46.073Z,11.90
2018-12-22T01:12:50.126Z,12.00
2018-12-22T01:17:54.712Z,12.00
2018-12-22T01:22:58.267Z,12.00
2018-12-22T01:28:02.909Z,12.00
2018-12-22T01:33:07.486Z,12.00
2018-12-22T01:38:12.751Z,12.00
2018-12-22T01:43:26.943Z,12.00
2018-12-22T01:48:31.272Z,12.00
2018-12-22T01:53:35.228Z,12.00
2018-12-22T01:58:47.604Z,12.00
2018-12-22T02:09:20.951Z,11.90
2018-12-22T02:14:24.574Z,11.80
2018-12-22T02:19:28.790Z,11.80
2018-12-22T02:24:33.372Z,11.80
2018-12-22T02:29:37.488Z,11.80
2018-12-22T02:34:41.435Z,11.80
2018-12-22T02:39:45.777Z,11.70
2018-12-22T02:44:49.711Z,11.70
2018-12-22T02:49:54.048Z,11.70
2018-12-22T02:54:58.352Z,11.60
2018-12-22T03:00:02.715Z,11.60
2018-12-22T03:05:07.215Z,11.60
2018-12-22T03:10:11.283Z,11.60
2018-12-22T03:15:16.200Z,11.60
2018-12-22T03:31:16.150Z,11.50
2018-12-22T03:36:20.482Z,11.50
2018-12-22T03:41:24.813Z,11.50
2018-12-22T03:46:29.044Z,11.50
2018-12-22T03:51:33.386Z,11.50
2018-12-22T03:56:55.755Z,11.40
2018-12-22T04:01:59.624Z,11.40
2018-12-22T04:07:03.826Z,11.50
2018-12-22T04:12:07.428Z,11.40
2018-12-22T04:17:12.346Z,11.40
2018-12-22T04:22:17.303Z,11.40
2018-12-22T04:27:21.154Z,11.40
2018-12-22T04:37:53.411Z,11.40
2018-12-22T04:42:58.025Z,11.40
2018-12-22T04:48:02.347Z,11.40
2018-12-22T04:53:06.488Z,11.40
2018-12-22T04:58:10.838Z,11.40
2018-12-22T05:03:15.017Z,11.30
2018-12-22T05:24:43.968Z,11.30
2018-12-22T05:29:51.961Z,11.30
2018-12-22T05:34:55.415Z,11.30
2018-12-22T05:40:00.510Z,11.30
2018-12-22T05:45:04.623Z,11.40
2018-12-22T05:50:08.944Z,11.40
2018-12-22T05:55:13.076Z,11.40
2018-12-22T06:00:17.773Z,11.40
2018-12-22T06:05:21.491Z,11.50
2018-12-22T06:10:25.207Z,11.50
2018-12-22T06:15:29.399Z,11.50
2018-12-22T06:20:33.783Z,11.50
2018-12-22T06:25:38.100Z,11.50
2018-12-22T06:36:29.463Z,11.60
2018-12-22T06:41:34.069Z,11.60
2018-12-22T06:46:38.166Z,11.60
2018-12-22T06:51:42.849Z,11.60
2018-12-22T06:56:46.725Z,11.60
2018-12-22T07:01:50.447Z,11.60
2018-12-22T07:06:53.971Z,11.60
2018-12-22T07:11:58.460Z,11.60
2018-12-22T07:17:02.491Z,11.50
2018-12-22T07:22:06.755Z,11.50
2018-12-22T07:27:11.878Z,11.50
2018-12-22T07:32:15.664Z,11.40
2018-12-22T07:37:20.139Z,11.40
2018-12-22T07:42:24.871Z,11.30
2018-12-22T07:47:28.811Z,11.40
2018-12-22T07:52:33.093Z,11.40
2018-12-22T08:08:33.380Z,11.30
2018-12-22T08:13:37.662Z,11.30
2018-12-22T08:18:55.903Z,11.40
2018-12-22T08:24:00.408Z,11.30
2018-12-22T08:29:05.065Z,11.30
2018-12-22T08:34:08.729Z,11.30
2018-12-22T08:39:24.329Z,11.30
2018-12-22T08:44:27.983Z,11.30
2018-12-22T08:49:32.231Z,11.30
2018-12-22T08:54:36.353Z,11.30
2018-12-22T08:59:40.693Z,11.30
2018-12-22T09:04:44.388Z,11.30
2018-12-22T09:09:48.129Z,11.30
2018-12-22T09:25:47.362Z,11.20
2018-12-22T09:30:51.286Z,11.20
2018-12-22T09:35:56.197Z,11.20
2018-12-22T09:41:00.085Z,11.20
2018-12-22T09:56:59.480Z,11.20
2018-12-22T10:02:03.171Z,11.20
2018-12-22T10:07:07.057Z,11.30
2018-12-22T10:12:11.627Z,11.30
2018-12-22T10:17:15.906Z,11.30
2018-12-22T10:22:20.269Z,11.40
2018-12-22T10:27:24.910Z,11.30
2018-12-22T10:32:28.770Z,11.40
2018-12-22T10:37:33.546Z,11.40
2018-12-22T10:42:38.337Z,11.40
2018-12-22T10:47:42.542Z,11.40
2018-12-22T10:52:48.799Z,11.40
2018-12-22T10:57:53.251Z,11.50
2018-12-22T11:02:57.933Z,11.50
2018-12-22T11:08:02.001Z,11.50
2018-12-22T11:13:22.383Z,11.50
2018-12-22T11:18:26.848Z,11.60
2018-12-22T11:23:31.430Z,11.60
2018-12-22T11:28:35.642Z,11.60
2018-12-22T11:33:39.509Z,11.70
2018-12-22T11:38:44.801Z,11.70
2018-12-22T11:43:49.166Z,11.70
2018-12-22T11:49:02.958Z,11.70
2018-12-22T11:54:07.655Z,11.70
2018-12-22T11:59:12.105Z,11.70
2018-12-22T12:09:48.917Z,11.60
2018-12-22T12:14:52.729Z,11.50
2018-12-22T12:19:56.864Z,11.30
2018-12-22T12:25:00.410Z,11.30
2018-12-22T12:30:05.644Z,11.20
2018-12-22T12:35:09.894Z,11.10
2018-12-22T12:40:13.880Z,11.10
2018-12-22T12:45:18.299Z,11.10
2018-12-22T12:50:23.968Z,11.10
2018-12-22T12:55:28.307Z,11.10
2018-12-22T13:00:32.651Z,11.10
2018-12-22T13:05:36.273Z,11.10
2018-12-22T13:10:40.704Z,11.20
2018-12-22T13:15:44.878Z,11.20
2018-12-22T13:20:48.720Z,11.20
2018-12-22T13:25:53.681Z,11.20
2018-12-22T13:30:57.359Z,11.30
2018-12-22T13:36:01.195Z,11.30
2018-12-22T13:41:05.077Z,11.30
2018-12-22T13:46:33.354Z,11.40
2018-12-22T13:51:38.461Z,11.50
2018-12-22T13:56:42.603Z,11.50
2018-12-22T14:01:50.393Z,11.50
2018-12-22T14:06:54.527Z,11.50
2018-12-22T14:11:59.048Z,11.50
2018-12-22T14:17:37.663Z,11.60
2018-12-22T14:22:43.307Z,11.50
2018-12-22T14:27:48.122Z,11.50
2018-12-22T14:32:51.775Z,11.50
2018-12-22T14:37:55.665Z,11.50
2018-12-22T14:42:59.717Z,11.50
2018-12-22T14:48:04.228Z,11.50
2018-12-22T14:53:08.209Z,11.50
2018-12-22T14:58:18.137Z,11.50
2018-12-22T15:03:21.783Z,11.40
2018-12-22T15:08:25.425Z,11.30
2018-12-22T15:13:29.792Z,11.30
2018-12-22T15:18:33.327Z,11.30
2018-12-22T15:23:37.595Z,11.30
2018-12-22T15:28:47.088Z,11.30
2018-12-22T15:33:58.856Z,11.20
2018-12-22T15:39:03.658Z,11.20
2018-12-22T15:44:07.506Z,11.20
2018-12-22T15:49:12.608Z,11.20
2018-12-22T15:54:16.932Z,11.20
2018-12-22T15:59:20.793Z,11.30
2018-12-22T16:04:25.122Z,11.30
2018-12-22T16:09:29.534Z,11.30
2018-12-22T16:14:44.353Z,11.30
2018-12-22T16:19:48.868Z,11.30
2018-12-22T16:24:52.531Z,11.30
2018-12-22T16:29:56.876Z,11.20
2018-12-22T16:35:01.654Z,11.20
2018-12-22T16:40:06.732Z,11.20
2018-12-22T16:45:13.691Z,11.10
2018-12-22T16:56:04.016Z,11.00
2018-12-22T17:01:23.506Z,11.00
2018-12-22T17:06:27.256Z,11.10
2018-12-22T17:11:31.407Z,11.00
2018-12-22T17:16:54.135Z,11.00
2018-12-22T17:22:14.527Z,11.00
2018-12-22T17:27:18.380Z,10.90
2018-12-22T17:32:22.523Z,10.90
2018-12-22T17:37:26.699Z,10.90
2018-12-22T17:42:30.794Z,10.80
2018-12-22T17:53:03.423Z,10.90
2018-12-22T17:58:07.022Z,10.90
2018-12-22T18:03:14.099Z,10.90
2018-12-22T18:08:18.514Z,10.90
2018-12-22T18:13:23.257Z,10.90
2018-12-22T18:18:27.317Z,10.90
2018-12-22T18:29:01.937Z,10.90
2018-12-22T18:34:06.203Z,10.80
2018-12-22T18:39:10.338Z,10.80
2018-12-22T18:44:14.727Z,10.80
2018-12-22T18:49:19.135Z,10.80
2018-12-22T18:54:26.466Z,10.80
2018-12-22T18:59:30.657Z,10.80
2018-12-22T19:04:34.886Z,10.70
2018-12-22T19:09:40.137Z,10.80
2018-12-22T19:14:54.904Z,10.70
2018-12-22T19:19:59.389Z,10.70
2018-12-22T19:30:35.203Z,10.80
2018-12-22T19:35:39.943Z,10.70
2018-12-22T19:40:44.981Z,10.70
2018-12-22T19:45:49.315Z,10.70
2018-12-22T19:50:53.584Z,10.70
2018-12-22T19:55:57.233Z,10.70
2018-12-22T20:01:00.924Z,10.70
2018-12-22T20:06:05.876Z,10.70
2018-12-22T20:11:10.499Z,10.70
2018-12-22T20:16:14.387Z,10.70
2018-12-22T20:21:18.812Z,10.70
2018-12-22T20:26:23.727Z,10.80
2018-12-22T20:31:28.460Z,10.80
2018-12-22T20:36:33.395Z,10.80
2018-12-22T20:41:37.963Z,10.80
2018-12-22T20:46:42.330Z,10.80
2018-12-22T20:51:46.785Z,10.80
2018-12-22T20:56:50.689Z,10.80
2018-12-22T21:01:54.632Z,10.70
2018-12-22T21:18:17.154Z,10.70
2018-12-22T21:23:21.533Z,10.70
2018-12-22T21:28:25.678Z,10.60
2018-12-22T21:33:30.354Z,10.60
2018-12-22T21:38:34.831Z,10.60
2018-12-22T21:43:39.267Z,10.50
2018-12-22T21:48:43.779Z,10.60
2018-12-22T22:04:43.664Z,10.50
2018-12-22T22:09:47.864Z,10.50
2018-12-22T22:14:51.856Z,10.40
2018-12-22T22:41:50.061Z,10.30
2018-12-22T22:46:53.768Z,10.30
2018-12-22T22:51:58.720Z,10.30
2018-12-22T22:57:03.141Z,10.30
2018-12-22T23:02:07.688Z,10.30
2018-12-22T23:07:11.206Z,10.30
2018-12-22T23:12:15.546Z,10.30
2018-12-22T23:39:12.309Z,10.40
2018-12-22T23:44:16.824Z,10.40
2018-12-22T23:49:20.731Z,10.40
2018-12-22T23:54:25.368Z,10.40
2018-12-22T23:59:30.081Z,10.50
